Laukaa, Finland
Kieli:  Suomi
19°C CurCond
Päivitetty18/08/2018 02:20 
 

Lähistön Lentoasemien Säätiloja:

 

EFJY - Jyvaskyla (mil/C,) Finland
Etäisyys Sääasemalta: PKo 21km
Päivitetty: 18/08/2018 01:50
Selkeätä
Selkeätä
 Tuulen suunta E
Tuuli: E 9 km/h
Lämpötila: 19°C
Kastepiste: 12°C
Ilmankosteus: 64%
Ilmanpaine: 1014 hPa
Yhteenveto: Selkeätä
Näkyvyys: Enemmän Kuin 10 km
2018/08/17 22:50 EFJY 172250Z AUTO 17005KT 120V220 CAVOK 19/12 Q1014
EFHA - Halli (fin-Afb), Finland
Etäisyys Sääasemalta: Lo 56km
Päivitetty: 18/08/2018 02:20
Selkeätä
Selkeätä
 Tuulen suunta EKa
Tuuli: EKa 17 km/h
Lämpötila: 18°C
Kastepiste: 13°C
Ilmankosteus: 73%
Ilmanpaine: 1014 hPa
Yhteenveto: Selkeätä
Näkyvyys: Enemmän Kuin 10 km
2018/08/17 23:20 EFHA 172320Z AUTO 16009KT CAVOK 18/13 Q1014
EFMI - Mikkeli, Finland
Etäisyys Sääasemalta: IKa 105km
Päivitetty: 18/08/2018 02:20
Selkeätä
Selkeätä
 Tuulen suunta EKa
Tuuli: EKa 7 km/h
Lämpötila: 17°C
Kastepiste: 15°C
Ilmankosteus: 88%
Ilmanpaine: 1016 hPa
Yhteenveto: Selkeätä
Näkyvyys: Enemmän Kuin 10 km
2018/08/17 23:20 EFMI 172320Z AUTO 16004KT 110V230 CAVOK 17/15 Q1016
 
EFTP - Tampere/Pirkkala, Finland
Etäisyys Sääasemalta: Lo 135km
Päivitetty: 18/08/2018 02:20
Selkeätä
Selkeätä
 Tuulen suunta E
Tuuli: E 11 km/h
Lämpötila: 18°C
Kastepiste: 14°C
Ilmankosteus: 78%
Ilmanpaine: 1014 hPa
Yhteenveto: Selkeätä
Näkyvyys: Enemmän Kuin 10 km
2018/08/17 23:20 EFTP 172320Z AUTO 17006KT 130V210 CAVOK 18/14 Q1014
EFKU - Kuopio (mil/Civ), Finland
Etäisyys Sääasemalta: Ko 146km
Päivitetty: 18/08/2018 02:20
Selkeätä
Selkeätä
 Tuulen suunta E
Tuuli: E 22 km/h
Lämpötila: 19°C
Kastepiste: 14°C
Ilmankosteus: 73%
Ilmanpaine: 1014 hPa
Yhteenveto: Selkeätä
Näkyvyys: Enemmän Kuin 10 km
2018/08/17 23:20 EFKU 172320Z AUTO 18012KT CAVOK 19/14 Q1014
EFSI - Seinajoki-Ilmajo, Finland
Etäisyys Sääasemalta: LLu 149km
Päivitetty: 18/08/2018 02:20
Selkeätä
Selkeätä
 Tuulen suunta E
Tuuli: E 4 km/h
Lämpötila: 15°C
Kastepiste: 14°C
Ilmankosteus: 94%
Ilmanpaine: 1011 hPa
Yhteenveto: Selkeätä
Näkyvyys: Enemmän Kuin 10 km
2018/08/17 23:20 EFSI 172320Z AUTO 18002KT CAVOK 15/14 Q1011